KFR111 EDDC-EDAH
Flight info
| Callsign | KFR111 |
|---|---|
| Flight time | 0h 35m |
| Altitude | 24000 |
| Route | KOBUS8E/04 KOBUS M725 EBASA Y621 LUROS M725 UDAXI |
| Aircraft | A321/M-SDE3FGHIRWY/LB1 |
Departure
| Time | 2026-05-07 19:09 |
|---|---|
| Airport | Dresden Airport (EDDC) |
Arrival
| Time | 2026-05-07 19:44 |
|---|---|
| Airport | Heringsdorf Airport (EDAH) |
| Time | Latitude | Longitude | Altitude | Speed | Heading |
|---|---|---|---|---|---|
| 2026-05-07 18:53 | 51.12633 | 13.76394 | 711 ft | 0 kts | 131° |
| 2026-05-07 19:01 | 51.12643 | 13.76377 | 712 ft | 2 kts | 136° |
| 2026-05-07 19:01 | 51.12655 | 13.76359 | 713 ft | 2 kts | 153° |
| 2026-05-07 19:02 | 51.12671 | 13.76357 | 716 ft | 2 kts | 221° |
| 2026-05-07 19:02 | 51.12676 | 13.76363 | 716 ft | 0 kts | 220° |
| 2026-05-07 19:04 | 51.12673 | 13.76358 | 716 ft | 2 kts | 219° |
| 2026-05-07 19:04 | 51.12629 | 13.76301 | 713 ft | 11 kts | 219° |
| 2026-05-07 19:05 | 51.12566 | 13.76218 | 715 ft | 13 kts | 220° |
| 2026-05-07 19:05 | 51.12545 | 13.76092 | 711 ft | 13 kts | 268° |
| 2026-05-07 19:05 | 51.12499 | 13.75999 | 714 ft | 11 kts | 227° |
| 2026-05-07 19:05 | 51.12440 | 13.75908 | 712 ft | 12 kts | 221° |
| 2026-05-07 19:06 | 51.12380 | 13.75816 | 713 ft | 11 kts | 238° |
| 2026-05-07 19:06 | 51.12396 | 13.75663 | 714 ft | 0 kts | 292° |
| 2026-05-07 19:07 | 51.12397 | 13.75661 | 714 ft | 0 kts | 292° |
| 2026-05-07 19:07 | 51.12419 | 13.75591 | 712 ft | 17 kts | 302° |
| 2026-05-07 19:07 | 51.12495 | 13.75522 | 712 ft | 13 kts | 12° |
| 2026-05-07 19:08 | 51.12529 | 13.75556 | 717 ft | 2 kts | 39° |
| 2026-05-07 19:08 | 51.12568 | 13.75610 | 713 ft | 33 kts | 41° |
| 2026-05-07 19:08 | 51.13154 | 13.76416 | 713 ft | 130 kts | 41° |
| 2026-05-07 19:08 | 51.13965 | 13.77532 | 953 ft | 165 kts | 40° |
| 2026-05-07 19:09 | 51.14824 | 13.78759 | 1799 ft | 166 kts | 40° |
| 2026-05-07 19:09 | 51.15684 | 13.79974 | 2663 ft | 167 kts | 40° |
| 2026-05-07 19:09 | 51.16595 | 13.81239 | 3141 ft | 184 kts | 40° |
| 2026-05-07 19:09 | 51.17622 | 13.82653 | 3446 ft | 205 kts | 40° |
| 2026-05-07 19:10 | 51.18759 | 13.84211 | 3682 ft | 228 kts | 40° |
| 2026-05-07 19:10 | 51.19591 | 13.85311 | 3907 ft | 239 kts | 37° |
| 2026-05-07 19:10 | 51.21444 | 13.87410 | 4544 ft | 257 kts | 33° |
| 2026-05-07 19:10 | 51.22959 | 13.89007 | 5264 ft | 264 kts | 32° |
| 2026-05-07 19:11 | 51.24511 | 13.90620 | 6022 ft | 269 kts | 32° |
| 2026-05-07 19:11 | 51.26095 | 13.92269 | 6743 ft | 275 kts | 32° |
| 2026-05-07 19:11 | 51.27161 | 13.93386 | 7224 ft | 278 kts | 33° |
| 2026-05-07 19:11 | 51.29218 | 13.95982 | 8191 ft | 284 kts | 39° |
| 2026-05-07 19:12 | 51.30231 | 13.97312 | 8684 ft | 287 kts | 39° |
| 2026-05-07 19:12 | 51.31778 | 13.99347 | 9456 ft | 290 kts | 39° |
| 2026-05-07 19:12 | 51.33868 | 14.02093 | 10331 ft | 300 kts | 39° |
| 2026-05-07 19:12 | 51.35539 | 14.04286 | 10514 ft | 322 kts | 39° |
| 2026-05-07 19:13 | 51.37328 | 14.06642 | 10721 ft | 341 kts | 39° |
| 2026-05-07 19:13 | 51.38561 | 14.08274 | 11253 ft | 338 kts | 39° |
| 2026-05-07 19:13 | 51.40371 | 14.10676 | 12064 ft | 338 kts | 39° |
| 2026-05-07 19:13 | 51.42747 | 14.13839 | 12951 ft | 342 kts | 39° |
| 2026-05-07 19:14 | 51.43960 | 14.15456 | 13392 ft | 344 kts | 39° |
| 2026-05-07 19:14 | 51.45812 | 14.17922 | 14032 ft | 347 kts | 39° |
| 2026-05-07 19:14 | 51.47761 | 14.20234 | 14615 ft | 350 kts | 31° |
| 2026-05-07 19:14 | 51.49929 | 14.22048 | 15186 ft | 353 kts | 22° |
| 2026-05-07 19:15 | 51.52259 | 14.23303 | 15783 ft | 356 kts | 13° |
| 2026-05-07 19:15 | 51.54740 | 14.23995 | 16026 ft | 370 kts | 4° |
| 2026-05-07 19:15 | 51.57373 | 14.24032 | 16078 ft | 388 kts | 354° |
| 2026-05-07 19:15 | 51.60111 | 14.23493 | 16083 ft | 405 kts | 352° |
| 2026-05-07 19:16 | 51.62965 | 14.22894 | 16083 ft | 419 kts | 352° |
| 2026-05-07 19:16 | 51.65839 | 14.22302 | 16081 ft | 423 kts | 352° |
| 2026-05-07 19:16 | 51.68757 | 14.21710 | 16084 ft | 424 kts | 352° |
| 2026-05-07 19:16 | 51.71684 | 14.21123 | 16083 ft | 424 kts | 352° |
| 2026-05-07 19:17 | 51.74614 | 14.20540 | 16086 ft | 424 kts | 352° |
| 2026-05-07 19:17 | 51.77542 | 14.19956 | 16152 ft | 427 kts | 352° |
| 2026-05-07 19:17 | 51.80495 | 14.19362 | 16686 ft | 428 kts | 352° |
| 2026-05-07 19:17 | 51.83453 | 14.18760 | 17183 ft | 430 kts | 352° |
| 2026-05-07 19:18 | 51.86434 | 14.18146 | 17654 ft | 433 kts | 352° |
| 2026-05-07 19:18 | 51.89437 | 14.17526 | 18134 ft | 436 kts | 352° |
| 2026-05-07 19:18 | 51.92448 | 14.16911 | 18561 ft | 438 kts | 352° |
| 2026-05-07 19:18 | 51.95440 | 14.16304 | 18965 ft | 440 kts | 352° |
| 2026-05-07 19:19 | 51.98490 | 14.15685 | 19387 ft | 442 kts | 352° |
| 2026-05-07 19:19 | 52.01550 | 14.15058 | 19805 ft | 444 kts | 352° |
| 2026-05-07 19:19 | 52.04623 | 14.14425 | 20263 ft | 446 kts | 352° |
| 2026-05-07 19:19 | 52.07711 | 14.13790 | 20705 ft | 448 kts | 352° |
| 2026-05-07 19:20 | 52.10812 | 14.13151 | 21122 ft | 450 kts | 352° |
| 2026-05-07 19:20 | 52.13927 | 14.12511 | 21526 ft | 452 kts | 352° |
| 2026-05-07 19:20 | 52.17054 | 14.11869 | 21925 ft | 454 kts | 352° |
| 2026-05-07 19:20 | 52.20201 | 14.11219 | 22325 ft | 456 kts | 353° |
| 2026-05-07 19:21 | 52.23356 | 14.10566 | 22707 ft | 458 kts | 353° |
| 2026-05-07 19:21 | 52.26525 | 14.09907 | 23057 ft | 460 kts | 353° |
| 2026-05-07 19:21 | 52.29664 | 14.09248 | 23399 ft | 462 kts | 353° |
| 2026-05-07 19:21 | 52.32857 | 14.08573 | 23707 ft | 464 kts | 353° |
| 2026-05-07 19:22 | 52.36066 | 14.07898 | 23978 ft | 465 kts | 353° |
| 2026-05-07 19:22 | 52.39272 | 14.07225 | 24089 ft | 464 kts | 353° |
| 2026-05-07 19:22 | 52.42470 | 14.06556 | 24106 ft | 462 kts | 353° |
| 2026-05-07 19:22 | 52.45656 | 14.05891 | 24103 ft | 462 kts | 353° |
| 2026-05-07 19:23 | 52.48844 | 14.05221 | 24101 ft | 462 kts | 353° |
| 2026-05-07 19:23 | 52.52027 | 14.04549 | 24108 ft | 462 kts | 353° |
| 2026-05-07 19:23 | 52.55215 | 14.03875 | 24108 ft | 461 kts | 353° |
| 2026-05-07 19:23 | 52.58356 | 14.03214 | 24106 ft | 461 kts | 353° |
| 2026-05-07 19:24 | 52.61540 | 14.02543 | 24104 ft | 461 kts | 352° |
| 2026-05-07 19:24 | 52.64720 | 14.01869 | 24102 ft | 461 kts | 352° |
| 2026-05-07 19:24 | 52.67915 | 14.01193 | 23890 ft | 464 kts | 352° |
| 2026-05-07 19:24 | 52.71122 | 14.00515 | 23649 ft | 464 kts | 352° |
| 2026-05-07 19:25 | 52.74320 | 13.99837 | 23369 ft | 463 kts | 352° |
| 2026-05-07 19:25 | 52.77501 | 13.99163 | 23032 ft | 460 kts | 352° |
| 2026-05-07 19:25 | 52.80666 | 13.98490 | 22111 ft | 455 kts | 352° |
| 2026-05-07 19:25 | 52.83773 | 13.97824 | 21307 ft | 448 kts | 352° |
| 2026-05-07 19:26 | 52.86847 | 13.97163 | 20479 ft | 442 kts | 352° |
| 2026-05-07 19:26 | 52.89875 | 13.96514 | 19679 ft | 437 kts | 352° |
| 2026-05-07 19:26 | 52.92833 | 13.95890 | 18905 ft | 431 kts | 352° |
| 2026-05-07 19:26 | 52.95793 | 13.95299 | 18083 ft | 426 kts | 353° |
| 2026-05-07 19:27 | 52.98717 | 13.94740 | 17291 ft | 420 kts | 353° |
| 2026-05-07 19:27 | 53.01596 | 13.94202 | 16527 ft | 413 kts | 353° |
| 2026-05-07 19:27 | 53.04437 | 13.93675 | 15778 ft | 407 kts | 353° |
| 2026-05-07 19:27 | 53.07230 | 13.93153 | 15061 ft | 402 kts | 353° |
| 2026-05-07 19:28 | 53.09988 | 13.92630 | 14369 ft | 397 kts | 353° |
| 2026-05-07 19:28 | 53.12714 | 13.92110 | 13679 ft | 392 kts | 353° |
| 2026-05-07 19:28 | 53.15397 | 13.91594 | 13020 ft | 385 kts | 353° |
| 2026-05-07 19:28 | 53.18003 | 13.91054 | 12331 ft | 379 kts | 350° |
| 2026-05-07 19:29 | 53.20572 | 13.90163 | 11665 ft | 373 kts | 347° |
| 2026-05-07 19:29 | 53.23074 | 13.89275 | 11318 ft | 360 kts | 348° |
| 2026-05-07 19:29 | 53.25465 | 13.88434 | 11194 ft | 342 kts | 348° |
| 2026-05-07 19:29 | 53.27734 | 13.87638 | 11067 ft | 326 kts | 348° |
| 2026-05-07 19:30 | 53.29904 | 13.86878 | 10940 ft | 311 kts | 348° |
| 2026-05-07 19:30 | 53.31977 | 13.86152 | 10817 ft | 298 kts | 348° |
| 2026-05-07 19:30 | 53.33967 | 13.85454 | 10606 ft | 289 kts | 348° |
| 2026-05-07 19:30 | 53.35913 | 13.84767 | 10366 ft | 284 kts | 348° |
| 2026-05-07 19:31 | 53.37765 | 13.84109 | 10123 ft | 282 kts | 348° |
| 2026-05-07 19:31 | 53.39653 | 13.83443 | 9905 ft | 280 kts | 348° |
| 2026-05-07 19:31 | 53.41557 | 13.82772 | 9775 ft | 280 kts | 348° |
| 2026-05-07 19:31 | 53.43468 | 13.82097 | 9643 ft | 280 kts | 348° |
| 2026-05-07 19:32 | 53.45371 | 13.81427 | 9507 ft | 279 kts | 348° |
| 2026-05-07 19:32 | 53.47273 | 13.80756 | 9371 ft | 279 kts | 348° |
| 2026-05-07 19:32 | 53.49172 | 13.80083 | 9204 ft | 279 kts | 348° |
| 2026-05-07 19:32 | 53.51056 | 13.79415 | 8880 ft | 276 kts | 348° |
| 2026-05-07 19:33 | 53.52933 | 13.78747 | 8525 ft | 275 kts | 349° |
| 2026-05-07 19:33 | 53.54776 | 13.78091 | 8180 ft | 274 kts | 349° |
| 2026-05-07 19:33 | 53.56636 | 13.77429 | 7811 ft | 273 kts | 349° |
| 2026-05-07 19:33 | 53.58485 | 13.76770 | 7459 ft | 272 kts | 349° |
| 2026-05-07 19:34 | 53.60338 | 13.76108 | 7102 ft | 271 kts | 349° |
| 2026-05-07 19:34 | 53.62179 | 13.75448 | 6748 ft | 269 kts | 350° |
| 2026-05-07 19:34 | 53.64005 | 13.74791 | 6387 ft | 267 kts | 350° |
| 2026-05-07 19:34 | 53.65816 | 13.74139 | 6025 ft | 265 kts | 351° |
| 2026-05-07 19:35 | 53.67609 | 13.73495 | 5676 ft | 262 kts | 351° |
| 2026-05-07 19:35 | 53.69388 | 13.72856 | 5331 ft | 261 kts | 352° |
| 2026-05-07 19:35 | 53.71158 | 13.72226 | 4995 ft | 259 kts | 352° |
| 2026-05-07 19:35 | 53.72917 | 13.71600 | 4638 ft | 258 kts | 352° |
| 2026-05-07 19:36 | 53.74640 | 13.70987 | 4312 ft | 255 kts | 352° |
| 2026-05-07 19:36 | 53.76374 | 13.70589 | 3971 ft | 249 kts | 4° |
| 2026-05-07 19:36 | 53.78079 | 13.70905 | 3877 ft | 247 kts | 13° |
| 2026-05-07 19:36 | 53.79773 | 13.71377 | 3815 ft | 247 kts | 12° |
| 2026-05-07 19:37 | 53.81471 | 13.71838 | 3751 ft | 247 kts | 12° |
| 2026-05-07 19:37 | 53.83172 | 13.72298 | 3702 ft | 248 kts | 12° |
| 2026-05-07 19:37 | 53.84869 | 13.72758 | 3632 ft | 247 kts | 12° |
| 2026-05-07 19:37 | 53.86564 | 13.73218 | 3573 ft | 247 kts | 12° |
| 2026-05-07 19:38 | 53.88253 | 13.73673 | 3537 ft | 241 kts | 12° |
| 2026-05-07 19:38 | 53.89838 | 13.74096 | 3476 ft | 227 kts | 12° |
| 2026-05-07 19:38 | 53.91363 | 13.74504 | 3418 ft | 217 kts | 12° |
| 2026-05-07 19:38 | 53.92735 | 13.75322 | 3355 ft | 207 kts | 39° |
| 2026-05-07 19:39 | 53.93584 | 13.77206 | 3310 ft | 198 kts | 70° |
| 2026-05-07 19:39 | 53.93682 | 13.79488 | 3243 ft | 196 kts | 99° |
| 2026-05-07 19:39 | 53.93327 | 13.81718 | 3190 ft | 195 kts | 102° |
| 2026-05-07 19:39 | 53.92962 | 13.83920 | 3102 ft | 193 kts | 102° |
| 2026-05-07 19:40 | 53.92610 | 13.86116 | 3014 ft | 193 kts | 102° |
| 2026-05-07 19:40 | 53.92256 | 13.88305 | 2965 ft | 192 kts | 102° |
| 2026-05-07 19:40 | 53.91899 | 13.90491 | 2792 ft | 189 kts | 102° |
| 2026-05-07 19:40 | 53.91563 | 13.92571 | 2562 ft | 181 kts | 102° |
| 2026-05-07 19:41 | 53.91233 | 13.94584 | 2329 ft | 174 kts | 102° |
| 2026-05-07 19:41 | 53.90915 | 13.96554 | 2095 ft | 173 kts | 103° |
| 2026-05-07 19:41 | 53.90603 | 13.98478 | 1867 ft | 163 kts | 102° |
| 2026-05-07 19:41 | 53.90318 | 14.00245 | 1681 ft | 147 kts | 102° |
| 2026-05-07 19:42 | 53.90054 | 14.01855 | 1475 ft | 138 kts | 102° |
| 2026-05-07 19:42 | 53.89800 | 14.03403 | 1308 ft | 135 kts | 102° |
| 2026-05-07 19:42 | 53.89551 | 14.04936 | 1123 ft | 134 kts | 102° |
| 2026-05-07 19:42 | 53.89305 | 14.06445 | 932 ft | 135 kts | 102° |
| 2026-05-07 19:43 | 53.89051 | 14.07988 | 758 ft | 137 kts | 103° |
| 2026-05-07 19:43 | 53.88790 | 14.09545 | 570 ft | 137 kts | 103° |
| 2026-05-07 19:43 | 53.88545 | 14.11108 | 414 ft | 138 kts | 103° |
| 2026-05-07 19:43 | 53.88288 | 14.12677 | 209 ft | 138 kts | 103° |
| 2026-05-07 19:44 | 53.88036 | 14.14232 | 71 ft | 129 kts | 104° |
| 2026-05-07 19:44 | 53.87870 | 14.15272 | 74 ft | 48 kts | 105° |
| 2026-05-07 19:44 | 53.87820 | 14.15485 | 72 ft | 9 kts | 99° |
| 2026-05-07 19:44 | 53.87837 | 14.15494 | 67 ft | 3 kts | 300° |
| 2026-05-07 19:45 | 53.87873 | 14.15231 | 69 ft | 38 kts | 285° |
| 2026-05-07 19:45 | 53.87961 | 14.14701 | 63 ft | 50 kts | 286° |
| 2026-05-07 19:45 | 53.88044 | 14.14205 | 70 ft | 36 kts | 285° |
| 2026-05-07 19:45 | 53.88072 | 14.13921 | 61 ft | 14 kts | 242° |
| 2026-05-07 19:46 | 53.88015 | 14.13891 | 70 ft | 8 kts | 180° |
| 2026-05-07 19:46 | 53.87960 | 14.13905 | 65 ft | 8 kts | 153° |
| 2026-05-07 19:46 | 53.87908 | 14.13966 | 71 ft | 10 kts | 198° |
| 2026-05-07 19:46 | 53.87900 | 14.13926 | 70 ft | 0 kts | 285° |